createdAt,value
2022-12-12T00:01:22.929Z,58.91
2022-12-12T00:03:50.455Z,57.19
2022-12-12T00:06:17.890Z,59.54
2022-12-12T00:08:45.429Z,57.99
2022-12-12T00:11:13.210Z,58.30
2022-12-12T00:13:40.789Z,60.52
2022-12-12T00:16:08.295Z,58.42
2022-12-12T00:18:37.031Z,59.59
2022-12-12T00:21:05.558Z,57.92
2022-12-12T00:23:32.799Z,57.09
2022-12-12T00:26:01.458Z,56.21
2022-12-12T00:28:28.771Z,56.37
2022-12-12T00:30:56.056Z,56.83
2022-12-12T00:33:23.550Z,60.08
2022-12-12T00:35:51.674Z,58.66
2022-12-12T00:38:19.405Z,57.15
2022-12-12T00:40:47.200Z,57.67
2022-12-12T00:43:14.481Z,57.23
2022-12-12T00:45:41.755Z,55.65
2022-12-12T00:48:09.468Z,57.63
2022-12-12T00:50:36.720Z,58.30
2022-12-12T00:53:04.007Z,57.58
2022-12-12T00:55:31.410Z,57.25
2022-12-12T00:57:58.723Z,56.89
2022-12-12T01:00:25.894Z,57.68
2022-12-12T01:02:55.094Z,57.36
2022-12-12T01:05:22.319Z,56.42
2022-12-12T01:07:49.551Z,54.93
2022-12-12T01:10:17.021Z,54.32
2022-12-12T01:12:44.242Z,54.60
2022-12-12T01:15:12.161Z,56.99
2022-12-12T01:17:39.872Z,56.34
2022-12-12T01:20:07.900Z,56.84
2022-12-12T01:22:35.136Z,58.16
2022-12-12T01:25:02.811Z,58.80
2022-12-12T01:27:30.199Z,58.83
2022-12-12T01:30:01.749Z,55.55
2022-12-12T01:32:29.319Z,57.69
2022-12-12T01:34:56.469Z,57.02
2022-12-12T01:37:23.623Z,56.51
2022-12-12T01:39:51.093Z,56.14
2022-12-12T01:42:19.009Z,55.47
2022-12-12T01:44:47.389Z,56.61
2022-12-12T01:47:15.837Z,55.68
2022-12-12T01:49:43.228Z,57.17
2022-12-12T01:52:14.531Z,58.18
2022-12-12T01:54:42.947Z,62.47
2022-12-12T01:57:13.875Z,59.17
2022-12-12T01:59:41.068Z,57.28
2022-12-12T02:02:08.835Z,59.18
2022-12-12T02:04:36.305Z,59.22
2022-12-12T02:07:03.717Z,61.78
2022-12-12T02:09:31.334Z,58.82
2022-12-12T02:11:59.245Z,59.42
2022-12-12T02:14:27.993Z,58.55
2022-12-12T02:17:01.848Z,56.75
2022-12-12T02:19:31.998Z,57.17
2022-12-12T02:22:14.361Z,58.19
2022-12-12T02:24:50.643Z,58.83
2022-12-12T02:27:41.111Z,57.19
2022-12-12T02:30:13.498Z,59.07
2022-12-12T02:32:59.142Z,57.31
2022-12-12T02:35:32.507Z,60.56
2022-12-12T02:38:02.415Z,57.07
2022-12-12T02:40:32.683Z,58.09
2022-12-12T02:43:06.754Z,58.15
2022-12-12T02:45:38.529Z,59.43
2022-12-12T02:48:29.566Z,59.35
2022-12-12T02:50:58.450Z,59.70
2022-12-12T02:53:25.637Z,59.07
2022-12-12T02:56:03.145Z,59.28
2022-12-12T02:58:30.601Z,58.61
2022-12-12T03:01:11.436Z,58.23
2022-12-12T03:03:59.735Z,59.68
2022-12-12T03:06:54.885Z,58.55
2022-12-12T03:09:22.328Z,57.46
2022-12-12T03:11:56.906Z,57.55
2022-12-12T03:14:31.423Z,57.07
2022-12-12T03:17:01.575Z,58.65
2022-12-12T03:19:29.552Z,60.61
2022-12-12T03:22:07.235Z,58.11
2022-12-12T03:24:37.075Z,56.67
2022-12-12T03:27:05.675Z,56.38
2022-12-12T03:29:35.015Z,55.84
2022-12-12T03:32:04.561Z,54.41
2022-12-12T03:34:34.353Z,55.82
2022-12-12T03:37:03.540Z,52.83
2022-12-12T03:39:32.004Z,53.12
2022-12-12T03:42:25.406Z,51.62
2022-12-12T03:44:55.423Z,52.11
2022-12-12T03:47:26.653Z,50.82
2022-12-12T03:49:54.951Z,49.43
2022-12-12T03:52:26.459Z,48.44
2022-12-12T03:54:56.371Z,50.09
2022-12-12T03:57:25.873Z,49.20
2022-12-12T04:00:00.323Z,50.20
2022-12-12T04:02:44.829Z,49.37
2022-12-12T04:05:16.883Z,49.90
2022-12-12T04:07:45.566Z,48.84
2022-12-12T04:10:31.627Z,50.73
2022-12-12T04:13:22.873Z,48.51
2022-12-12T04:15:56.422Z,49.39
2022-12-12T04:18:32.418Z,48.47
2022-12-12T04:21:34.170Z,48.45
2022-12-12T04:24:10.516Z,50.25
2022-12-12T04:26:42.022Z,50.28
2022-12-12T04:29:09.206Z,49.33
2022-12-12T04:31:38.801Z,48.04
2022-12-12T04:34:08.212Z,48.00
2022-12-12T04:36:35.388Z,48.39
2022-12-12T04:39:02.964Z,48.48
2022-12-12T04:41:30.941Z,47.87
2022-12-12T04:43:58.152Z,49.54
2022-12-12T04:46:25.966Z,49.17
2022-12-12T04:49:01.935Z,48.27
2022-12-12T04:51:30.548Z,47.80
2022-12-12T04:54:00.833Z,46.07
2022-12-12T04:56:29.230Z,45.12
2022-12-12T04:58:56.578Z,44.90
2022-12-12T05:01:29.958Z,44.30
2022-12-12T05:03:58.186Z,45.08
2022-12-12T05:06:30.688Z,45.73
2022-12-12T05:08:58.024Z,45.08
2022-12-12T05:11:25.472Z,45.15
2022-12-12T05:13:52.615Z,44.71
2022-12-12T05:16:27.054Z,44.90
2022-12-12T05:18:54.627Z,44.46
2022-12-12T05:21:21.833Z,46.99
2022-12-12T05:23:48.961Z,47.67
2022-12-12T05:26:18.207Z,46.65
2022-12-12T05:28:45.388Z,45.58
2022-12-12T05:31:12.699Z,47.68
2022-12-12T05:33:40.183Z,47.83
2022-12-12T05:36:07.651Z,46.45
2022-12-12T05:38:34.822Z,47.45
2022-12-12T05:41:02.290Z,47.60
2022-12-12T05:43:29.499Z,47.66
2022-12-12T05:45:56.700Z,47.48
2022-12-12T05:48:24.787Z,46.65
2022-12-12T05:50:52.621Z,48.68
2022-12-12T05:53:20.172Z,49.31
2022-12-12T05:55:49.456Z,47.37
2022-12-12T05:58:16.600Z,46.61
2022-12-12T06:00:43.748Z,48.60
2022-12-12T06:03:11.264Z,47.58
2022-12-12T06:05:38.453Z,45.62
2022-12-12T06:08:05.673Z,47.86
2022-12-12T06:10:33.140Z,46.86
2022-12-12T06:13:00.300Z,47.71
2022-12-12T06:15:27.489Z,48.48
2022-12-12T06:17:55.143Z,46.75
2022-12-12T06:20:22.412Z,46.81
2022-12-12T06:22:53.718Z,46.30
2022-12-12T06:25:21.593Z,47.51
2022-12-12T06:27:48.762Z,45.63
2022-12-12T06:30:15.934Z,46.55
2022-12-12T06:32:43.413Z,46.87
2022-12-12T06:35:11.422Z,47.06
2022-12-12T06:37:39.047Z,47.75
2022-12-12T06:40:06.868Z,46.55
2022-12-12T06:42:34.019Z,45.65
2022-12-12T06:45:01.149Z,45.26
2022-12-12T06:47:28.659Z,47.50
2022-12-12T06:49:55.885Z,47.37
2022-12-12T06:52:23.073Z,44.56
2022-12-12T06:54:50.498Z,43.73
2022-12-12T06:57:17.620Z,45.07
2022-12-12T06:59:44.760Z,43.10
2022-12-12T07:02:12.381Z,40.75
2022-12-12T07:04:39.637Z,40.34
2022-12-12T07:07:06.874Z,38.90
2022-12-12T07:09:34.368Z,39.73
2022-12-12T07:12:01.509Z,39.60
2022-12-12T07:14:28.650Z,39.17
2022-12-12T07:16:56.113Z,40.75
2022-12-12T07:19:23.259Z,40.62
2022-12-12T07:21:50.507Z,38.27
2022-12-12T07:24:17.972Z,38.04
2022-12-12T07:26:45.106Z,37.49
2022-12-12T07:29:12.274Z,37.34
2022-12-12T07:31:39.674Z,34.22
2022-12-12T07:34:06.823Z,33.99
2022-12-12T07:36:33.988Z,32.12
2022-12-12T07:39:01.471Z,31.09
2022-12-12T07:41:28.654Z,31.90
2022-12-12T07:43:55.840Z,31.59
2022-12-12T07:46:24.101Z,32.23
2022-12-12T07:48:52.038Z,30.96
2022-12-12T07:51:19.274Z,35.62
2022-12-12T07:53:46.913Z,33.90
2022-12-12T07:56:15.535Z,34.56
2022-12-12T07:58:42.807Z,37.74
2022-12-12T08:01:15.419Z,35.46
2022-12-12T08:03:46.067Z,36.55
2022-12-12T08:06:13.747Z,37.67
2022-12-12T08:08:40.959Z,38.06
2022-12-12T08:11:09.543Z,38.02
2022-12-12T08:13:37.196Z,36.51
2022-12-12T08:16:04.919Z,37.20
2022-12-12T08:18:32.521Z,38.76
2022-12-12T08:21:00.389Z,36.90
2022-12-12T08:23:28.092Z,38.80
2022-12-12T08:25:55.491Z,37.46
2022-12-12T08:28:22.634Z,38.40
2022-12-12T08:30:50.566Z,36.27
2022-12-12T08:33:18.035Z,37.20
2022-12-12T08:35:45.445Z,37.28
2022-12-12T08:38:12.744Z,38.13
2022-12-12T08:40:41.529Z,37.15
2022-12-12T08:43:09.343Z,39.81
2022-12-12T08:45:39.682Z,39.80
2022-12-12T08:48:07.449Z,41.93
2022-12-12T08:50:34.712Z,39.77
2022-12-12T08:53:01.904Z,40.12
2022-12-12T08:55:30.288Z,38.71
2022-12-12T08:57:57.454Z,38.96
2022-12-12T09:00:24.674Z,38.89
2022-12-12T09:02:52.295Z,36.52
2022-12-12T09:05:19.540Z,32.65
2022-12-12T09:07:46.772Z,31.32
2022-12-12T09:10:14.298Z,34.41
2022-12-12T09:12:42.013Z,34.08
2022-12-12T09:15:09.878Z,35.18
2022-12-12T09:17:37.346Z,35.26
2022-12-12T09:20:04.793Z,34.55
2022-12-12T09:22:31.997Z,33.29
2022-12-12T09:25:00.316Z,35.62
2022-12-12T09:27:27.496Z,36.48
2022-12-12T09:29:54.643Z,37.92
2022-12-12T09:32:24.685Z,38.09
2022-12-12T09:34:52.217Z,40.79
2022-12-12T09:37:19.433Z,39.00
2022-12-12T09:39:46.847Z,37.00
2022-12-12T09:42:20.222Z,34.67
2022-12-12T09:44:47.762Z,35.64
2022-12-12T09:47:17.557Z,37.40
2022-12-12T09:49:44.716Z,39.33
2022-12-12T09:52:32.395Z,38.56
2022-12-12T09:54:59.853Z,37.91
2022-12-12T09:57:35.631Z,38.25
2022-12-12T10:00:08.063Z,40.30
2022-12-12T10:02:44.392Z,38.50
2022-12-12T10:05:30.851Z,37.99
2022-12-12T10:08:19.822Z,37.81
2022-12-12T10:10:48.533Z,39.04
2022-12-12T10:13:17.901Z,37.66
2022-12-12T10:15:46.238Z,36.19
2022-12-12T10:18:31.297Z,36.39
2022-12-12T10:21:00.911Z,35.01
2022-12-12T10:23:36.407Z,37.41
2022-12-12T10:26:07.752Z,38.76
2022-12-12T10:28:35.175Z,37.51
2022-12-12T10:31:05.341Z,35.79
2022-12-12T10:33:47.551Z,37.01
2022-12-12T10:36:27.223Z,39.56
2022-12-12T10:38:54.378Z,41.43
2022-12-12T10:41:25.295Z,40.97
2022-12-12T10:43:54.537Z,40.29
2022-12-12T10:46:22.034Z,39.32
2022-12-12T10:48:49.355Z,40.10
2022-12-12T10:51:17.990Z,40.55
2022-12-12T10:53:45.408Z,39.92
2022-12-12T10:56:13.565Z,41.38
2022-12-12T10:58:41.978Z,41.83
2022-12-12T11:01:38.560Z,40.29
2022-12-12T11:04:08.231Z,42.14
2022-12-12T11:06:37.233Z,41.91
2022-12-12T11:09:08.920Z,41.73
2022-12-12T11:11:36.407Z,38.29
2022-12-12T11:14:04.057Z,36.61
2022-12-12T11:16:31.271Z,38.05
2022-12-12T11:19:05.283Z,39.32
2022-12-12T11:21:33.629Z,41.01
2022-12-12T11:24:03.557Z,41.11
2022-12-12T11:26:31.135Z,40.51
2022-12-12T11:29:01.789Z,42.82
2022-12-12T11:31:32.821Z,41.65
2022-12-12T11:34:04.670Z,43.29
2022-12-12T11:36:33.663Z,43.36
2022-12-12T11:39:01.447Z,44.35
2022-12-12T11:41:28.624Z,46.62
2022-12-12T11:43:58.093Z,46.76
2022-12-12T11:46:29.063Z,44.53
2022-12-12T11:48:59.265Z,44.74
2022-12-12T11:51:31.239Z,45.95
2022-12-12T11:53:58.668Z,48.61
2022-12-12T11:56:45.267Z,47.51
2022-12-12T11:59:31.709Z,48.01
2022-12-12T12:02:08.085Z,46.46
2022-12-12T12:04:38.279Z,47.39
2022-12-12T12:07:25.929Z,49.26
2022-12-12T12:09:53.443Z,46.64
2022-12-12T12:12:25.374Z,47.28
2022-12-12T12:14:59.078Z,47.78
2022-12-12T12:17:26.448Z,45.31
2022-12-12T12:19:57.601Z,46.53
2022-12-12T12:22:31.069Z,50.64
2022-12-12T12:25:01.348Z,49.39
2022-12-12T12:27:41.263Z,47.06
2022-12-12T12:30:22.307Z,49.05
2022-12-12T12:32:57.180Z,48.90
2022-12-12T12:35:31.022Z,46.11
2022-12-12T12:38:16.781Z,46.32
2022-12-12T12:40:50.734Z,48.82
2022-12-12T12:43:20.988Z,50.38
2022-12-12T12:46:00.884Z,49.86
2022-12-12T12:48:51.432Z,49.29
2022-12-12T12:51:18.835Z,49.06
2022-12-12T12:53:46.014Z,47.43
2022-12-12T12:56:27.105Z,47.54
2022-12-12T12:58:55.715Z,51.07
2022-12-12T13:01:34.218Z,49.84
2022-12-12T13:04:03.595Z,49.56
2022-12-12T13:06:36.572Z,48.32
2022-12-12T13:09:13.672Z,47.88
2022-12-12T13:11:41.309Z,48.40
2022-12-12T13:14:30.299Z,48.78
2022-12-12T13:16:58.184Z,49.62
2022-12-12T13:19:32.101Z,48.68
2022-12-12T13:22:01.234Z,47.68
2022-12-12T13:24:40.142Z,48.02
2022-12-12T13:27:15.565Z,47.97
2022-12-12T13:29:46.354Z,50.28
2022-12-12T13:32:24.740Z,48.24
2022-12-12T13:34:53.542Z,47.08
2022-12-12T13:37:21.358Z,46.99
2022-12-12T13:39:57.465Z,49.91
2022-12-12T13:42:25.043Z,49.95
2022-12-12T13:44:52.582Z,46.54
2022-12-12T13:47:22.866Z,46.70
2022-12-12T13:49:52.366Z,47.74
2022-12-12T13:52:23.188Z,49.21
2022-12-12T13:54:51.969Z,49.27
2022-12-12T13:57:26.674Z,47.00
2022-12-12T13:59:54.280Z,48.39
2022-12-12T14:02:26.195Z,46.52
2022-12-12T14:05:05.791Z,46.84
2022-12-12T14:07:32.991Z,47.43
2022-12-12T14:10:00.530Z,47.15
2022-12-12T14:12:33.224Z,49.38
2022-12-12T14:15:01.951Z,48.11
2022-12-12T14:17:30.857Z,46.93
2022-12-12T14:19:59.000Z,47.30
2022-12-12T14:22:27.229Z,46.02
2022-12-12T14:25:13.402Z,46.33
2022-12-12T14:27:49.813Z,46.27
2022-12-12T14:30:33.397Z,46.42
2022-12-12T14:33:23.918Z,47.24
2022-12-12T14:35:59.561Z,46.97
2022-12-12T14:38:33.790Z,45.68
2022-12-12T14:41:02.186Z,45.68
2022-12-12T14:43:30.237Z,47.84
2022-12-12T14:45:58.333Z,46.56
2022-12-12T14:48:25.625Z,47.42
2022-12-12T14:50:53.057Z,47.63
2022-12-12T14:53:24.958Z,46.05
2022-12-12T14:55:56.468Z,47.70
2022-12-12T14:58:26.405Z,45.63
2022-12-12T15:00:55.185Z,45.86
2022-12-12T15:03:23.723Z,45.58
2022-12-12T15:06:10.864Z,45.46
2022-12-12T15:08:38.294Z,45.26
2022-12-12T15:11:11.117Z,45.67
2022-12-12T15:13:38.533Z,48.93
2022-12-12T15:16:05.881Z,45.68
2022-12-12T15:18:33.228Z,45.00
2022-12-12T15:21:00.664Z,44.22
2022-12-12T15:23:27.853Z,43.45
2022-12-12T15:25:55.094Z,43.89
2022-12-12T15:28:24.069Z,45.17
2022-12-12T15:30:53.420Z,44.53
2022-12-12T15:33:25.004Z,42.39
2022-12-12T15:35:59.636Z,44.24
2022-12-12T15:38:28.639Z,43.53
2022-12-12T15:40:57.359Z,43.35
2022-12-12T15:43:25.154Z,42.91
2022-12-12T15:45:53.227Z,42.24
2022-12-12T15:48:21.030Z,42.94
2022-12-12T15:50:56.931Z,42.12
2022-12-12T15:53:25.536Z,40.76
2022-12-12T15:55:55.720Z,42.51
2022-12-12T15:58:29.119Z,41.97
2022-12-12T16:01:21.725Z,42.87
2022-12-12T16:04:12.883Z,40.88
2022-12-12T16:06:40.914Z,42.17
2022-12-12T16:09:11.123Z,42.64
2022-12-12T16:11:42.800Z,42.15
2022-12-12T16:14:32.568Z,41.26
2022-12-12T16:17:10.611Z,42.23
2022-12-12T16:19:44.514Z,42.78
2022-12-12T16:22:24.041Z,41.89
2022-12-12T16:24:52.668Z,42.12
2022-12-12T16:27:19.835Z,43.21
2022-12-12T16:29:47.380Z,44.06
2022-12-12T16:32:15.972Z,41.97
2022-12-12T16:34:43.268Z,42.84
2022-12-12T16:37:14.234Z,45.50
2022-12-12T16:39:41.786Z,43.07
2022-12-12T16:42:12.881Z,41.64
2022-12-12T16:44:40.036Z,43.04
2022-12-12T16:47:17.488Z,45.69
2022-12-12T16:49:44.716Z,42.66
2022-12-12T16:52:15.904Z,45.14
2022-12-12T16:54:46.889Z,43.85
2022-12-12T16:57:18.662Z,43.34
2022-12-12T16:59:45.913Z,43.32
2022-12-12T17:02:17.284Z,43.70
2022-12-12T17:04:44.799Z,44.98
2022-12-12T17:07:11.985Z,44.26
2022-12-12T17:09:39.240Z,44.70
2022-12-12T17:12:08.892Z,44.18
2022-12-12T17:14:37.485Z,41.63
2022-12-12T17:17:05.212Z,41.37
2022-12-12T17:19:32.770Z,40.81
2022-12-12T17:22:00.594Z,40.88
2022-12-12T17:24:28.195Z,40.26
2022-12-12T17:26:56.006Z,41.43
2022-12-12T17:29:23.212Z,42.31
2022-12-12T17:31:50.526Z,42.65
2022-12-12T17:34:18.207Z,42.95
2022-12-12T17:36:45.519Z,42.72
2022-12-12T17:39:12.801Z,43.35
2022-12-12T17:41:40.288Z,43.69
2022-12-12T17:44:07.757Z,43.10
2022-12-12T17:46:34.949Z,43.10
2022-12-12T17:49:03.289Z,50.35
2022-12-12T17:51:30.811Z,44.96
2022-12-12T17:54:00.070Z,45.71
2022-12-12T17:56:27.790Z,45.83
2022-12-12T17:58:55.144Z,47.83
2022-12-12T18:01:26.663Z,46.78
2022-12-12T18:03:54.513Z,45.65
2022-12-12T18:06:22.616Z,45.68
2022-12-12T18:08:49.987Z,47.09
2022-12-12T18:11:19.370Z,47.24
2022-12-12T18:13:50.331Z,45.78
2022-12-12T18:16:18.210Z,45.97
2022-12-12T18:18:45.606Z,43.04
2022-12-12T18:21:35.810Z,43.92
2022-12-12T18:24:04.737Z,43.74
2022-12-12T18:26:32.583Z,42.82
2022-12-12T18:29:00.640Z,43.58
2022-12-12T18:31:29.587Z,43.72
2022-12-12T18:33:56.991Z,41.47
2022-12-12T18:36:26.789Z,41.15
2022-12-12T18:38:58.273Z,41.09
2022-12-12T18:41:26.490Z,39.80
2022-12-12T18:43:56.703Z,39.82
2022-12-12T18:46:27.759Z,39.68
2022-12-12T18:48:55.349Z,41.99
2022-12-12T18:51:23.964Z,40.32
2022-12-12T18:53:51.891Z,41.01
2022-12-12T18:56:29.310Z,45.75
2022-12-12T18:58:57.053Z,43.71
2022-12-12T19:01:25.703Z,41.84
2022-12-12T19:03:53.541Z,42.96
2022-12-12T19:06:22.338Z,43.12
2022-12-12T19:08:49.971Z,44.96
2022-12-12T19:11:17.292Z,44.75
2022-12-12T19:13:44.964Z,42.83
2022-12-12T19:16:14.044Z,44.29
2022-12-12T19:18:41.845Z,42.73
2022-12-12T19:21:10.262Z,42.99
2022-12-12T19:23:38.106Z,42.52
2022-12-12T19:26:06.178Z,44.95
2022-12-12T19:28:33.330Z,42.91
2022-12-12T19:31:00.871Z,44.07
2022-12-12T19:33:28.195Z,45.44
2022-12-12T19:35:55.323Z,44.59
2022-12-12T19:38:24.736Z,47.03
2022-12-12T19:40:52.100Z,47.32
2022-12-12T19:43:19.379Z,46.23
2022-12-12T19:45:47.058Z,45.17
2022-12-12T19:48:14.325Z,45.14
2022-12-12T19:50:41.803Z,43.80
2022-12-12T19:53:09.478Z,44.92
2022-12-12T19:55:36.937Z,43.90
2022-12-12T19:58:04.438Z,45.31
2022-12-12T20:00:31.947Z,44.47
2022-12-12T20:02:59.604Z,45.28
2022-12-12T20:05:26.937Z,44.57
2022-12-12T20:07:54.156Z,44.47
2022-12-12T20:10:21.641Z,47.80
2022-12-12T20:12:57.859Z,45.09
2022-12-12T20:15:26.127Z,51.77
2022-12-12T20:17:53.520Z,49.32
2022-12-12T20:20:20.895Z,46.78
2022-12-12T20:22:48.534Z,46.68
2022-12-12T20:25:15.747Z,49.22
2022-12-12T20:27:42.911Z,48.69
2022-12-12T20:30:10.787Z,48.64
2022-12-12T20:32:38.014Z,49.80
2022-12-12T20:35:05.714Z,49.69
2022-12-12T20:37:33.255Z,49.12
2022-12-12T20:40:01.980Z,51.30
2022-12-12T20:42:29.178Z,51.61
2022-12-12T20:44:56.782Z,50.07
2022-12-12T20:47:24.033Z,53.60
2022-12-12T20:49:51.353Z,50.57
2022-12-12T20:52:20.538Z,51.57
2022-12-12T20:54:47.783Z,52.10
2022-12-12T20:57:15.530Z,51.41
2022-12-12T20:59:44.410Z,52.52
2022-12-12T21:02:11.733Z,52.20
2022-12-12T21:04:38.936Z,49.83
2022-12-12T21:07:06.407Z,49.90
2022-12-12T21:09:33.669Z,50.22
2022-12-12T21:12:00.860Z,48.97
2022-12-12T21:14:30.645Z,48.27
2022-12-12T21:16:58.058Z,48.15
2022-12-12T21:19:25.382Z,48.48
2022-12-12T21:21:53.034Z,48.87
2022-12-12T21:24:20.322Z,47.45
2022-12-12T21:26:47.586Z,47.59
2022-12-12T21:29:15.845Z,50.63
2022-12-12T21:31:49.910Z,48.41
2022-12-12T21:34:19.636Z,48.67
2022-12-12T21:36:46.808Z,47.69
2022-12-12T21:39:13.979Z,49.13
2022-12-12T21:41:43.959Z,51.60
2022-12-12T21:44:11.293Z,50.12
2022-12-12T21:46:41.832Z,51.41
2022-12-12T21:49:28.248Z,52.64
2022-12-12T21:51:56.504Z,52.86
2022-12-12T21:54:24.013Z,52.67
2022-12-12T21:56:51.389Z,52.35
2022-12-12T21:59:18.586Z,51.47
2022-12-12T22:01:46.056Z,53.00
2022-12-12T22:04:13.855Z,53.58
2022-12-12T22:06:41.140Z,53.55
2022-12-12T22:09:09.656Z,53.75
2022-12-12T22:11:48.687Z,52.21
2022-12-12T22:14:16.898Z,54.13
2022-12-12T22:16:44.781Z,52.51
2022-12-12T22:19:12.874Z,53.71
2022-12-12T22:21:40.221Z,53.73
2022-12-12T22:24:08.200Z,54.01
2022-12-12T22:26:36.497Z,54.09
2022-12-12T22:29:13.595Z,55.12
2022-12-12T22:31:41.219Z,53.69
2022-12-12T22:34:16.533Z,52.93
2022-12-12T22:36:44.119Z,52.86
2022-12-12T22:39:12.834Z,53.33
2022-12-12T22:41:40.000Z,54.30
2022-12-12T22:44:07.812Z,56.20
2022-12-12T22:46:39.211Z,53.00
2022-12-12T22:49:10.062Z,56.67
2022-12-12T22:51:37.286Z,55.59
2022-12-12T22:54:05.248Z,57.27
2022-12-12T22:56:33.695Z,55.52
2022-12-12T22:59:00.865Z,56.31
2022-12-12T23:01:28.189Z,55.57
2022-12-12T23:03:55.858Z,56.22
2022-12-12T23:06:24.159Z,56.06
2022-12-12T23:08:55.542Z,55.34
2022-12-12T23:11:23.578Z,57.26
2022-12-12T23:13:50.830Z,55.49
2022-12-12T23:16:19.198Z,55.84
2022-12-12T23:18:47.032Z,58.06
2022-12-12T23:21:17.314Z,58.97
2022-12-12T23:23:44.926Z,60.68
2022-12-12T23:26:13.293Z,60.31
2022-12-12T23:28:40.787Z,57.47
2022-12-12T23:31:09.121Z,57.89
2022-12-12T23:33:36.858Z,59.01
2022-12-12T23:36:04.709Z,60.20
2022-12-12T23:38:31.930Z,58.59
2022-12-12T23:41:06.038Z,57.97
2022-12-12T23:43:33.164Z,58.46
2022-12-12T23:46:01.712Z,59.37
2022-12-12T23:48:29.325Z,57.22
2022-12-12T23:50:56.828Z,56.74
2022-12-12T23:53:24.315Z,55.71
2022-12-12T23:55:51.585Z,56.08
2022-12-12T23:58:18.733Z,56.83
